Terminal Aerodrome Forecast
Issued by NWS

Home | Current Version | Previous Version | Text Only | Print | Product List | Glossary On
Versions: 1 2 3 4 5 6 7 8 9 10 11 12 13 14
612
FTUS46 KSEW 202329
TAFOLM
TAF
KOLM 202329Z 2100/2124 18007KT P6SM SCT050 BKN070 OVC090
      TEMPO 2100/2103 -SHRA BKN030 OVC050
     FM210300 21006KT P6SM SCT035 BKN080 OVC120
     FM211000 19004KT P6SM -RA BKN035 OVC060
     FM211500 14008KT 3SM -RA BR BKN007 OVC020
      TEMPO 2118/2122 2SM RA BR OVC006=

USA.gov is the U.S. government's official web portal to all federal, state and local government web resources and services.